Time,TemperatureF,DewpointF,PressureIn,WindDirection,WindDirectionDegrees,WindSpeedMPH,WindSpeedGustMPH,Humidity,HourlyPrecipIn,Conditions,Clouds,dailyrainin,SoftwareType,DateUTC
2013-05-01 00:11:00,72.5,17.0,29.61,SSE,157,3.7,-999.0,12,-99.99,,,0.00,Acu-Link.com,2013-05-01 07:11:00,
2013-05-01 00:26:00,72.1,16.7,29.62,SSE,157,2.7,-999.0,12,-99.99,,,0.00,Acu-Link.com,2013-05-01 07:26:00,
2013-05-01 00:41:00,71.6,18.2,29.61,NNW,337,3.2,-999.0,13,-99.99,,,0.00,Acu-Link.com,2013-05-01 07:41:00,
2013-05-01 00:56:00,71.2,17.9,29.62,SW,225,2.7,-999.0,13,-99.99,,,0.00,Acu-Link.com,2013-05-01 07:56:00,
2013-05-01 01:12:00,70.5,17.3,29.62,South,180,2.2,-999.0,13,-99.99,,,0.00,Acu-Link.com,2013-05-01 08:12:00,
2013-05-01 01:27:00,70.5,17.3,29.62,West,270,3.7,-999.0,13,-99.99,,,0.00,Acu-Link.com,2013-05-01 08:27:00,
2013-05-01 01:42:00,70.2,18.8,29.63,ESE,112,3.2,-999.0,14,-99.99,,,0.00,Acu-Link.com,2013-05-01 08:42:00,
2013-05-01 01:57:00,70.5,17.3,29.62,West,270,5.3,-999.0,13,-99.99,,,0.00,Acu-Link.com,2013-05-01 08:57:00,
2013-05-01 02:12:00,69.8,18.5,29.63,WNW,292,3.7,-999.0,14,-99.99,,,0.00,Acu-Link.com,2013-05-01 09:12:00,
2013-05-01 02:27:00,69.6,18.3,29.62,ENE,67,4.2,-999.0,14,-99.99,,,0.00,Acu-Link.com,2013-05-01 09:27:00,
2013-05-01 02:43:00,69.3,18.1,29.63,ESE,112,2.7,-999.0,14,-99.99,,,0.00,Acu-Link.com,2013-05-01 09:43:00,
2013-05-01 02:58:00,68.7,17.6,29.63,NE,45,2.2,-999.0,14,-99.99,,,0.00,Acu-Link.com,2013-05-01 09:58:00,
2013-05-01 03:13:00,68.2,17.2,29.64,ENE,67,3.2,-999.0,14,-99.99,,,0.00,Acu-Link.com,2013-05-01 10:13:00,
2013-05-01 03:28:00,68.2,17.2,29.63,SW,225,0.0,-999.0,14,-99.99,,,0.00,Acu-Link.com,2013-05-01 10:28:00,
2013-05-01 03:44:00,65.7,18.3,29.64,NE,45,1.1,-999.0,16,-99.99,,,0.00,Acu-Link.com,2013-05-01 10:44:00,
2013-05-01 03:59:00,64.6,17.4,29.65,SW,225,0.0,-999.0,16,-99.99,,,0.00,Acu-Link.com,2013-05-01 10:59:00,
2013-05-01 04:14:00,62.6,21.0,29.65,WNW,292,0.0,-999.0,20,-99.99,,,0.00,Acu-Link.com,2013-05-01 11:14:00,
2013-05-01 04:30:00,64.8,17.6,29.65,NNW,337,3.7,-999.0,16,-99.99,,,0.00,Acu-Link.com,2013-05-01 11:30:00,
2013-05-01 04:45:00,65.5,18.1,29.64,NNE,22,1.7,-999.0,16,-99.99,,,0.00,Acu-Link.com,2013-05-01 11:45:00,
2013-05-01 05:00:00,63.1,18.9,29.65,WSW,247,0.0,-999.0,18,-99.99,,,0.00,Acu-Link.com,2013-05-01 12:00:00,
2013-05-01 05:16:00,61.9,17.9,29.66,NW,315,0.0,-999.0,18,-99.99,,,0.00,Acu-Link.com,2013-05-01 12:16:00,
2013-05-01 05:31:00,62.4,18.4,29.66,WNW,292,1.7,-999.0,18,-99.99,,,0.00,Acu-Link.com,2013-05-01 12:31:00,
2013-05-01 05:46:00,61.9,19.2,29.67,West,270,0.0,-999.0,19,-99.99,,,0.00,Acu-Link.com,2013-05-01 12:46:00,
2013-05-01 06:01:00,60.4,22.4,29.68,SSW,202,1.7,-999.0,23,-99.99,,,0.00,Acu-Link.com,2013-05-01 13:01:00,
2013-05-01 06:17:00,60.8,20.6,29.68,NNW,337,0.0,-999.0,21,-99.99,,,0.00,Acu-Link.com,2013-05-01 13:17:00,
2013-05-01 06:32:00,60.3,20.2,29.69,West,270,2.2,-999.0,21,-99.99,,,0.00,Acu-Link.com,2013-05-01 13:32:00,
2013-05-01 06:47:00,60.3,22.4,29.70,NW,315,0.0,-999.0,23,-99.99,,,0.00,Acu-Link.com,2013-05-01 13:47:00,
2013-05-01 07:02:00,60.6,20.5,29.70,West,270,0.0,-999.0,21,-99.99,,,0.00,Acu-Link.com,2013-05-01 14:02:00,
2013-05-01 07:18:00,62.6,22.1,29.71,ENE,67,0.0,-999.0,21,-99.99,,,0.00,Acu-Link.com,2013-05-01 14:18:00,
2013-05-01 07:33:00,65.8,25.9,29.72,SSW,202,0.0,-999.0,22,-99.99,,,0.00,Acu-Link.com,2013-05-01 14:33:00,
2013-05-01 07:48:00,68.9,29.6,29.72,SSW,202,0.0,-999.0,23,-99.99,,,0.00,Acu-Link.com,2013-05-01 14:48:00,
2013-05-01 08:03:00,70.3,23.4,29.73,NW,315,0.0,-999.0,17,-99.99,,,0.00,Acu-Link.com,2013-05-01 15:03:00,
2013-05-01 08:19:00,70.5,26.3,29.73,SSW,202,0.0,-999.0,19,-99.99,,,0.00,Acu-Link.com,2013-05-01 15:19:00,
2013-05-01 08:34:00,71.6,29.6,29.74,NNW,337,0.0,-999.0,21,-99.99,,,0.00,Acu-Link.com,2013-05-01 15:34:00,
2013-05-01 08:49:00,72.3,27.7,29.74,SSE,157,2.2,-999.0,19,-99.99,,,0.00,Acu-Link.com,2013-05-01 15:49:00,
2013-05-01 09:05:00,73.6,24.6,29.74,NNW,337,0.0,-999.0,16,-99.99,,,0.00,Acu-Link.com,2013-05-01 16:05:00,
2013-05-01 09:20:00,74.1,25.0,29.75,SE,135,3.7,-999.0,16,-99.99,,,0.00,Acu-Link.com,2013-05-01 16:20:00,
2013-05-01 09:35:00,75.0,29.9,29.76,NE,45,0.0,-999.0,19,-99.99,,,0.00,Acu-Link.com,2013-05-01 16:35:00,
2013-05-01 09:51:00,75.7,23.1,29.76,East,90,7.8,-999.0,14,-99.99,,,0.00,Acu-Link.com,2013-05-01 16:51:00,
2013-05-01 10:06:00,77.2,22.6,29.76,NNE,22,4.7,-999.0,13,-99.99,,,0.00,Acu-Link.com,2013-05-01 17:06:00,
2013-05-01 10:21:00,77.2,22.6,29.76,SE,135,5.3,-999.0,13,-99.99,,,0.00,Acu-Link.com,2013-05-01 17:21:00,
2013-05-01 10:36:00,78.1,23.3,29.77,ESE,112,7.3,-999.0,13,-99.99,,,0.00,Acu-Link.com,2013-05-01 17:36:00,
2013-05-01 10:51:00,78.4,23.5,29.77,ENE,67,9.9,-999.0,13,-99.99,,,0.00,Acu-Link.com,2013-05-01 17:51:00,
2013-05-01 11:07:00,79.0,20.0,29.78,ESE,112,8.9,-999.0,11,-99.99,,,0.00,Acu-Link.com,2013-05-01 18:07:00,
2013-05-01 11:22:00,80.2,23.0,29.79,ENE,67,7.8,-999.0,12,-99.99,,,0.00,Acu-Link.com,2013-05-01 18:22:00,
2013-05-01 11:37:00,79.5,22.4,29.79,ESE,112,7.3,-999.0,12,-99.99,,,0.00,Acu-Link.com,2013-05-01 18:37:00,
2013-05-01 11:52:00,80.4,23.1,29.79,ENE,67,8.9,-999.0,12,-99.99,,,0.00,Acu-Link.com,2013-05-01 18:52:00,
2013-05-01 12:07:00,81.3,23.8,29.79,NE,45,8.9,-999.0,12,-99.99,,,0.00,Acu-Link.com,2013-05-01 19:07:00,
2013-05-01 12:22:00,81.1,23.7,29.79,ENE,67,5.3,-999.0,12,-99.99,,,0.00,Acu-Link.com,2013-05-01 19:22:00,
2013-05-01 12:38:00,82.0,24.4,29.79,East,90,7.3,-999.0,12,-99.99,,,0.00,Acu-Link.com,2013-05-01 19:38:00,
2013-05-01 12:53:00,82.0,24.4,29.79,NW,315,9.9,-999.0,12,-99.99,,,0.00,Acu-Link.com,2013-05-01 19:53:00,
2013-05-01 13:08:00,82.4,24.7,29.79,East,90,5.3,-999.0,12,-99.99,,,0.00,Acu-Link.com,2013-05-01 20:08:00,
2013-05-01 13:23:00,83.7,23.6,29.79,NNE,22,10.4,-999.0,11,-99.99,,,0.00,Acu-Link.com,2013-05-01 20:23:00,
2013-05-01 13:38:00,83.1,23.2,29.79,ENE,67,10.4,-999.0,11,-99.99,,,0.00,Acu-Link.com,2013-05-01 20:38:00,
2013-05-01 13:53:00,83.8,25.8,29.79,SE,135,3.2,-999.0,12,-99.99,,,0.00,Acu-Link.com,2013-05-01 20:53:00,
2013-05-01 14:09:00,84.9,26.6,29.79,WSW,247,6.3,-999.0,12,-99.99,,,0.00,Acu-Link.com,2013-05-01 21:09:00,
2013-05-01 14:24:00,84.6,26.4,29.79,NNE,22,7.8,-999.0,12,-99.99,,,0.00,Acu-Link.com,2013-05-01 21:24:00,
2013-05-01 14:39:00,85.6,27.2,29.79,East,90,4.7,-999.0,12,-99.99,,,0.00,Acu-Link.com,2013-05-01 21:39:00,
2013-05-01 14:54:00,86.5,29.8,29.78,WSW,247,2.7,-999.0,13,-99.99,,,0.00,Acu-Link.com,2013-05-01 21:54:00,
2013-05-01 15:10:00,86.0,27.5,29.78,SSE,157,5.3,-999.0,12,-99.99,,,0.00,Acu-Link.com,2013-05-01 22:10:00,
2013-05-01 15:25:00,86.5,29.8,29.78,ESE,112,7.3,-999.0,13,-99.99,,,0.00,Acu-Link.com,2013-05-01 22:25:00,
2013-05-01 15:40:00,87.3,32.3,29.78,NE,45,7.3,-999.0,14,-99.99,,,0.00,Acu-Link.com,2013-05-01 22:40:00,
2013-05-01 15:55:00,87.4,32.3,29.77,SE,135,4.2,-999.0,14,-99.99,,,0.00,Acu-Link.com,2013-05-01 22:55:00,
2013-05-01 16:11:00,86.7,30.0,29.78,SE,135,3.7,-999.0,13,-99.99,,,0.00,Acu-Link.com,2013-05-01 23:11:00,
2013-05-01 16:26:00,87.1,30.3,29.77,SE,135,4.7,-999.0,13,-99.99,,,0.00,Acu-Link.com,2013-05-01 23:26:00,
2013-05-01 16:41:00,87.3,32.3,29.77,ESE,112,3.2,-999.0,14,-99.99,,,0.00,Acu-Link.com,2013-05-01 23:41:00,
2013-05-01 16:56:00,88.3,29.2,29.77,South,180,4.2,-999.0,12,-99.99,,,0.00,Acu-Link.com,2013-05-01 23:56:00,
2013-05-01 17:11:00,89.2,31.9,29.77,NE,45,5.3,-999.0,13,-99.99,,,0.00,Acu-Link.com,2013-05-02 00:11:00,
2013-05-01 17:26:00,89.2,29.9,29.77,WNW,292,2.2,-999.0,12,-99.99,,,0.00,Acu-Link.com,2013-05-02 00:26:00,
2013-05-01 17:41:00,89.8,30.4,29.77,NNE,22,4.7,-999.0,12,-99.99,,,0.00,Acu-Link.com,2013-05-02 00:41:00,
2013-05-01 17:56:00,88.5,29.4,29.77,ENE,67,4.2,-999.0,12,-99.99,,,0.00,Acu-Link.com,2013-05-02 00:56:00,
2013-05-01 18:12:00,88.5,31.4,29.78,ENE,67,3.7,-999.0,13,-99.99,,,0.00,Acu-Link.com,2013-05-02 01:12:00,
2013-05-01 18:27:00,88.3,31.2,29.78,SE,135,2.7,-999.0,13,-99.99,,,0.00,Acu-Link.com,2013-05-02 01:27:00,
2013-05-01 18:42:00,88.2,29.2,29.78,NNE,22,2.2,-999.0,12,-99.99,,,0.00,Acu-Link.com,2013-05-02 01:42:00,
2013-05-01 18:57:00,86.5,27.9,29.78,ESE,112,4.7,-999.0,12,-99.99,,,0.00,Acu-Link.com,2013-05-02 01:57:00,
2013-05-01 19:13:00,81.0,40.8,29.78,WSW,247,0.0,-999.0,24,-99.99,,,0.00,Acu-Link.com,2013-05-02 02:13:00,
2013-05-01 19:28:00,76.5,39.1,29.78,WNW,292,0.0,-999.0,26,-99.99,,,0.00,Acu-Link.com,2013-05-02 02:28:00,
2013-05-01 19:43:00,72.3,42.3,29.79,WSW,247,1.7,-999.0,34,-99.99,,,0.00,Acu-Link.com,2013-05-02 02:43:00,
2013-05-01 19:58:00,70.3,38.2,29.79,NNW,337,0.0,-999.0,31,-99.99,,,0.00,Acu-Link.com,2013-05-02 02:58:00,
2013-05-01 20:14:00,69.1,47.4,29.79,ENE,67,0.0,-999.0,46,-99.99,,,0.01,Acu-Link.com,2013-05-02 03:14:00,
2013-05-01 20:29:00,67.5,38.1,29.80,NE,45,2.2,-999.0,34,-99.99,,,0.01,Acu-Link.com,2013-05-02 03:29:00,
2013-05-01 20:44:00,67.8,37.6,29.80,NNW,337,0.0,-999.0,33,-99.99,,,0.01,Acu-Link.com,2013-05-02 03:44:00,
2013-05-01 21:00:00,67.8,39.9,29.80,ENE,67,0.0,-999.0,36,-99.99,,,0.01,Acu-Link.com,2013-05-02 04:00:00,
2013-05-01 21:15:00,67.5,33.2,29.81,WSW,247,0.0,-999.0,28,-99.99,,,0.01,Acu-Link.com,2013-05-02 04:15:00,
2013-05-01 21:30:00,67.5,32.3,29.81,NE,45,0.0,-999.0,27,-99.99,,,0.01,Acu-Link.com,2013-05-02 04:30:00,
2013-05-01 21:46:00,68.2,33.8,29.82,NNW,337,0.0,-999.0,28,-99.99,,,0.01,Acu-Link.com,2013-05-02 04:46:00,
2013-05-01 22:01:00,67.6,30.5,29.82,SSE,157,0.0,-999.0,25,-99.99,,,0.01,Acu-Link.com,2013-05-02 05:01:00,
2013-05-01 22:16:00,71.1,29.2,29.82,WNW,292,1.7,-999.0,21,-99.99,,,0.01,Acu-Link.com,2013-05-02 05:16:00,
2013-05-01 22:32:00,70.5,30.9,29.83,NNW,337,1.1,-999.0,23,-99.99,,,0.01,Acu-Link.com,2013-05-02 05:32:00,
2013-05-01 22:47:00,69.6,30.2,29.83,NW,315,2.2,-999.0,23,-99.99,,,0.01,Acu-Link.com,2013-05-02 05:47:00,
2013-05-01 23:02:00,67.1,32.9,29.83,NE,45,0.0,-999.0,28,-99.99,,,0.01,Acu-Link.com,2013-05-02 06:02:00,
2013-05-01 23:18:00,65.8,34.3,29.83,WSW,247,0.0,-999.0,31,-99.99,,,0.01,Acu-Link.com,2013-05-02 06:18:00,
2013-05-01 23:33:00,63.9,32.7,29.83,NE,45,0.0,-999.0,31,-99.99,,,0.01,Acu-Link.com,2013-05-02 06:33:00,
2013-05-01 23:48:00,63.9,35.0,29.84,East,90,0.0,-999.0,34,-99.99,,,0.01,Acu-Link.com,2013-05-02 06:48:00,